BKB1 KS16-CYKA
Flight info
| Callsign | BKB1 |
|---|---|
| Flight time | N/A |
| Altitude | 25000 |
| Route | ELMAA J70 SEA J503 FOLDY |
| Aircraft | PC12/L-SDFGRWY/S |
Departure
| Time | N/A |
|---|---|
| Airport | KS16 |
Arrival
| Time | 2026-04-29 17:29 |
|---|---|
| Airport | Kamloops John Moose Fulton Field Regional Airport (CYKA) |
| Time | Latitude | Longitude | Altitude | Speed | Heading |
|---|---|---|---|---|---|
| 2026-04-29 15:53 | 47.14233 | -124.18751 | 4 ft | 0 kts | 253° |
| 2026-04-29 15:58 | 47.14232 | -124.18754 | 4 ft | 1 kts | 246° |
| 2026-04-29 15:58 | 47.14205 | -124.18757 | 4 ft | 9 kts | 165° |
| 2026-04-29 15:59 | 47.14152 | -124.18728 | 3 ft | 3 kts | 198° |
| 2026-04-29 15:59 | 47.14167 | -124.18758 | 3 ft | 5 kts | 338° |
| 2026-04-29 15:59 | 47.14170 | -124.18760 | 3 ft | 0 kts | 339° |
| 2026-04-29 15:59 | 47.14172 | -124.18761 | 3 ft | 5 kts | 339° |
| 2026-04-29 16:00 | 47.14383 | -124.18887 | 5 ft | 61 kts | 337° |
| 2026-04-29 16:00 | 47.14909 | -124.19158 | 53 ft | 91 kts | 340° |
| 2026-04-29 16:00 | 47.15509 | -124.19535 | 239 ft | 96 kts | 338° |
| 2026-04-29 16:00 | 47.16189 | -124.19717 | 317 ft | 115 kts | 5° |
| 2026-04-29 16:01 | 47.16901 | -124.19171 | 619 ft | 116 kts | 47° |
| 2026-04-29 16:01 | 47.17149 | -124.18085 | 978 ft | 115 kts | 93° |
| 2026-04-29 16:01 | 47.16840 | -124.17033 | 1373 ft | 112 kts | 126° |
| 2026-04-29 16:01 | 47.16337 | -124.16182 | 1765 ft | 109 kts | 133° |
| 2026-04-29 16:02 | 47.15822 | -124.15387 | 2140 ft | 106 kts | 133° |
| 2026-04-29 16:02 | 47.15335 | -124.14598 | 2467 ft | 103 kts | 127° |
| 2026-04-29 16:02 | 47.14973 | -124.13702 | 2770 ft | 101 kts | 113° |
| 2026-04-29 16:02 | 47.14818 | -124.13060 | 2957 ft | 101 kts | 105° |
| 2026-04-29 16:03 | 47.14678 | -124.12041 | 3214 ft | 103 kts | 97° |
| 2026-04-29 16:03 | 47.14612 | -124.10976 | 3477 ft | 107 kts | 93° |
| 2026-04-29 16:03 | 47.14585 | -124.09863 | 3736 ft | 112 kts | 90° |
| 2026-04-29 16:03 | 47.14578 | -124.08681 | 3964 ft | 121 kts | 90° |
| 2026-04-29 16:04 | 47.14579 | -124.07342 | 4222 ft | 143 kts | 89° |
| 2026-04-29 16:04 | 47.14582 | -124.05190 | 4569 ft | 173 kts | 89° |
| 2026-04-29 16:04 | 47.14584 | -124.03954 | 4744 ft | 184 kts | 89° |
| 2026-04-29 16:04 | 47.14591 | -124.02004 | 5004 ft | 197 kts | 89° |
| 2026-04-29 16:05 | 47.14601 | -123.99963 | 5306 ft | 203 kts | 89° |
| 2026-04-29 16:05 | 47.14613 | -123.97872 | 5611 ft | 206 kts | 89° |
| 2026-04-29 16:05 | 47.14624 | -123.95779 | 5912 ft | 208 kts | 89° |
| 2026-04-29 16:05 | 47.14636 | -123.93617 | 6225 ft | 209 kts | 89° |
| 2026-04-29 16:06 | 47.14646 | -123.91500 | 6536 ft | 210 kts | 89° |
| 2026-04-29 16:06 | 47.14657 | -123.89348 | 6844 ft | 211 kts | 89° |
| 2026-04-29 16:06 | 47.14667 | -123.87187 | 7137 ft | 212 kts | 88° |
| 2026-04-29 16:06 | 47.14677 | -123.85018 | 7432 ft | 212 kts | 88° |
| 2026-04-29 16:07 | 47.14687 | -123.82848 | 7733 ft | 213 kts | 88° |
| 2026-04-29 16:07 | 47.14697 | -123.80671 | 8034 ft | 214 kts | 88° |
| 2026-04-29 16:07 | 47.14706 | -123.78483 | 8337 ft | 215 kts | 88° |
| 2026-04-29 16:07 | 47.14715 | -123.76282 | 8644 ft | 216 kts | 88° |
| 2026-04-29 16:08 | 47.14723 | -123.74072 | 8954 ft | 217 kts | 87° |
| 2026-04-29 16:08 | 47.14731 | -123.71848 | 9267 ft | 218 kts | 87° |
| 2026-04-29 16:08 | 47.14738 | -123.69614 | 9581 ft | 219 kts | 87° |
| 2026-04-29 16:08 | 47.14745 | -123.67366 | 9897 ft | 220 kts | 87° |
| 2026-04-29 16:09 | 47.14752 | -123.65110 | 10213 ft | 221 kts | 87° |
| 2026-04-29 16:09 | 47.14758 | -123.62839 | 10501 ft | 222 kts | 86° |
| 2026-04-29 16:09 | 47.14764 | -123.60560 | 10792 ft | 225 kts | 86° |
| 2026-04-29 16:09 | 47.14771 | -123.58243 | 11120 ft | 227 kts | 87° |
| 2026-04-29 16:10 | 47.14776 | -123.55917 | 11488 ft | 227 kts | 87° |
| 2026-04-29 16:10 | 47.14780 | -123.53621 | 11857 ft | 228 kts | 87° |
| 2026-04-29 16:10 | 47.14784 | -123.51286 | 12237 ft | 229 kts | 87° |
| 2026-04-29 16:10 | 47.14787 | -123.48945 | 12617 ft | 230 kts | 86° |
| 2026-04-29 16:11 | 47.14791 | -123.46591 | 13006 ft | 230 kts | 86° |
| 2026-04-29 16:11 | 47.14794 | -123.44234 | 13399 ft | 231 kts | 86° |
| 2026-04-29 16:11 | 47.14839 | -123.41882 | 13793 ft | 229 kts | 79° |
| 2026-04-29 16:11 | 47.15179 | -123.39609 | 14186 ft | 226 kts | 68° |
| 2026-04-29 16:12 | 47.15736 | -123.37456 | 14544 ft | 226 kts | 64° |
| 2026-04-29 16:12 | 47.16317 | -123.35304 | 14898 ft | 227 kts | 64° |
| 2026-04-29 16:12 | 47.16899 | -123.33153 | 15260 ft | 227 kts | 63° |
| 2026-04-29 16:12 | 47.17483 | -123.30985 | 15623 ft | 228 kts | 63° |
| 2026-04-29 16:13 | 47.18064 | -123.28815 | 15994 ft | 228 kts | 63° |
| 2026-04-29 16:13 | 47.18638 | -123.26665 | 16363 ft | 229 kts | 63° |
| 2026-04-29 16:13 | 47.19219 | -123.24483 | 16744 ft | 230 kts | 63° |
| 2026-04-29 16:13 | 47.19800 | -123.22294 | 17131 ft | 230 kts | 63° |
| 2026-04-29 16:14 | 47.20383 | -123.20098 | 17520 ft | 231 kts | 62° |
| 2026-04-29 16:14 | 47.20968 | -123.17892 | 17934 ft | 231 kts | 63° |
| 2026-04-29 16:14 | 47.21552 | -123.15684 | 18328 ft | 232 kts | 62° |
| 2026-04-29 16:14 | 47.22137 | -123.13471 | 18720 ft | 232 kts | 62° |
| 2026-04-29 16:15 | 47.22719 | -123.11262 | 19069 ft | 231 kts | 62° |
| 2026-04-29 16:15 | 47.23302 | -123.09053 | 19425 ft | 232 kts | 62° |
| 2026-04-29 16:15 | 47.23885 | -123.06842 | 19787 ft | 232 kts | 61° |
| 2026-04-29 16:15 | 47.24469 | -123.04627 | 20148 ft | 232 kts | 61° |
| 2026-04-29 16:16 | 47.25053 | -123.02410 | 20520 ft | 232 kts | 61° |
| 2026-04-29 16:16 | 47.25629 | -123.00220 | 20888 ft | 233 kts | 61° |
| 2026-04-29 16:16 | 47.26214 | -122.97995 | 21266 ft | 233 kts | 60° |
| 2026-04-29 16:16 | 47.26799 | -122.95765 | 21647 ft | 234 kts | 60° |
| 2026-04-29 16:17 | 47.27384 | -122.93534 | 22036 ft | 234 kts | 60° |
| 2026-04-29 16:17 | 47.27971 | -122.91292 | 22429 ft | 235 kts | 60° |
| 2026-04-29 16:17 | 47.28561 | -122.89041 | 22828 ft | 236 kts | 60° |
| 2026-04-29 16:17 | 47.29150 | -122.86787 | 23231 ft | 236 kts | 60° |
| 2026-04-29 16:18 | 47.29742 | -122.84524 | 23642 ft | 237 kts | 59° |
| 2026-04-29 16:18 | 47.30335 | -122.82250 | 24029 ft | 237 kts | 59° |
| 2026-04-29 16:18 | 47.30928 | -122.79972 | 24407 ft | 238 kts | 60° |
| 2026-04-29 16:18 | 47.31515 | -122.77715 | 24755 ft | 238 kts | 60° |
| 2026-04-29 16:19 | 47.32116 | -122.75411 | 24935 ft | 247 kts | 60° |
| 2026-04-29 16:19 | 47.32754 | -122.72988 | 24966 ft | 259 kts | 60° |
| 2026-04-29 16:19 | 47.33414 | -122.70466 | 24982 ft | 268 kts | 60° |
| 2026-04-29 16:19 | 47.34080 | -122.67883 | 24988 ft | 270 kts | 61° |
| 2026-04-29 16:20 | 47.34737 | -122.65301 | 25124 ft | 266 kts | 61° |
| 2026-04-29 16:20 | 47.35383 | -122.62758 | 25235 ft | 264 kts | 60° |
| 2026-04-29 16:20 | 47.36033 | -122.60220 | 25288 ft | 265 kts | 60° |
| 2026-04-29 16:20 | 47.36689 | -122.57671 | 25314 ft | 266 kts | 60° |
| 2026-04-29 16:21 | 47.37349 | -122.55111 | 25327 ft | 268 kts | 60° |
| 2026-04-29 16:21 | 47.38013 | -122.52537 | 25332 ft | 269 kts | 60° |
| 2026-04-29 16:21 | 47.38679 | -122.49948 | 25335 ft | 270 kts | 60° |
| 2026-04-29 16:21 | 47.39337 | -122.47385 | 25334 ft | 271 kts | 61° |
| 2026-04-29 16:22 | 47.40004 | -122.44785 | 25338 ft | 271 kts | 61° |
| 2026-04-29 16:22 | 47.40672 | -122.42176 | 25351 ft | 272 kts | 60° |
| 2026-04-29 16:22 | 47.41343 | -122.39564 | 25342 ft | 272 kts | 60° |
| 2026-04-29 16:22 | 47.42015 | -122.36946 | 25343 ft | 272 kts | 61° |
| 2026-04-29 16:23 | 47.42684 | -122.34316 | 25339 ft | 272 kts | 60° |
| 2026-04-29 16:23 | 47.43540 | -122.31878 | 25341 ft | 262 kts | 46° |
| 2026-04-29 16:23 | 47.44729 | -122.29954 | 25343 ft | 253 kts | 33° |
| 2026-04-29 16:23 | 47.46150 | -122.28463 | 25344 ft | 249 kts | 26° |
| 2026-04-29 16:24 | 47.47610 | -122.27079 | 25342 ft | 249 kts | 26° |
| 2026-04-29 16:24 | 47.49072 | -122.25700 | 25341 ft | 249 kts | 26° |
| 2026-04-29 16:24 | 47.50536 | -122.24318 | 25341 ft | 250 kts | 26° |
| 2026-04-29 16:24 | 47.52002 | -122.22929 | 25338 ft | 250 kts | 26° |
| 2026-04-29 16:25 | 47.53464 | -122.21539 | 25339 ft | 250 kts | 26° |
| 2026-04-29 16:25 | 47.54927 | -122.20144 | 25339 ft | 250 kts | 26° |
| 2026-04-29 16:25 | 47.56389 | -122.18749 | 25334 ft | 250 kts | 26° |
| 2026-04-29 16:25 | 47.57851 | -122.17352 | 25357 ft | 250 kts | 26° |
| 2026-04-29 16:26 | 47.59318 | -122.15948 | 25337 ft | 250 kts | 27° |
| 2026-04-29 16:26 | 47.60782 | -122.14547 | 25337 ft | 250 kts | 27° |
| 2026-04-29 16:26 | 47.62246 | -122.13146 | 25337 ft | 250 kts | 27° |
| 2026-04-29 16:26 | 47.63707 | -122.11746 | 25338 ft | 250 kts | 27° |
| 2026-04-29 16:27 | 47.65153 | -122.10359 | 25339 ft | 251 kts | 27° |
| 2026-04-29 16:27 | 47.66618 | -122.08953 | 25338 ft | 251 kts | 27° |
| 2026-04-29 16:27 | 47.68081 | -122.07548 | 25337 ft | 251 kts | 27° |
| 2026-04-29 16:27 | 47.69546 | -122.06140 | 25339 ft | 251 kts | 27° |
| 2026-04-29 16:28 | 47.71010 | -122.04733 | 25334 ft | 251 kts | 27° |
| 2026-04-29 16:28 | 47.72475 | -122.03322 | 25335 ft | 251 kts | 27° |
| 2026-04-29 16:28 | 47.73940 | -122.01912 | 25340 ft | 251 kts | 27° |
| 2026-04-29 16:28 | 47.75389 | -122.00516 | 25337 ft | 250 kts | 27° |
| 2026-04-29 16:29 | 47.76848 | -121.99109 | 25342 ft | 250 kts | 27° |
| 2026-04-29 16:29 | 47.78311 | -121.97697 | 25341 ft | 250 kts | 27° |
| 2026-04-29 16:29 | 47.79768 | -121.96291 | 25343 ft | 250 kts | 27° |
| 2026-04-29 16:29 | 47.81233 | -121.94876 | 25349 ft | 251 kts | 27° |
| 2026-04-29 16:30 | 47.82702 | -121.93455 | 25347 ft | 252 kts | 27° |
| 2026-04-29 16:30 | 47.84172 | -121.92032 | 25343 ft | 252 kts | 27° |
| 2026-04-29 16:30 | 47.85645 | -121.90605 | 25337 ft | 252 kts | 27° |
| 2026-04-29 16:30 | 47.87117 | -121.89178 | 25342 ft | 252 kts | 27° |
| 2026-04-29 16:31 | 47.88588 | -121.87752 | 25342 ft | 252 kts | 27° |
| 2026-04-29 16:31 | 47.90056 | -121.86327 | 25333 ft | 252 kts | 27° |
| 2026-04-29 16:31 | 47.91522 | -121.84903 | 25331 ft | 251 kts | 27° |
| 2026-04-29 16:31 | 47.92971 | -121.83496 | 25333 ft | 251 kts | 27° |
| 2026-04-29 16:32 | 47.94452 | -121.82056 | 25325 ft | 251 kts | 27° |
| 2026-04-29 16:32 | 47.95897 | -121.80650 | 25328 ft | 251 kts | 27° |
| 2026-04-29 16:32 | 47.97358 | -121.79228 | 25324 ft | 250 kts | 27° |
| 2026-04-29 16:32 | 47.98817 | -121.77805 | 25318 ft | 250 kts | 27° |
| 2026-04-29 16:33 | 48.01737 | -121.74956 | 25332 ft | 251 kts | 27° |
| 2026-04-29 16:33 | 48.03204 | -121.73524 | 25343 ft | 252 kts | 28° |
| 2026-04-29 16:33 | 48.04673 | -121.72091 | 25338 ft | 253 kts | 28° |
| 2026-04-29 16:34 | 48.06146 | -121.70654 | 25338 ft | 253 kts | 28° |
| 2026-04-29 16:34 | 48.07624 | -121.69208 | 25322 ft | 254 kts | 28° |
| 2026-04-29 16:34 | 48.09104 | -121.67758 | 25317 ft | 254 kts | 28° |
| 2026-04-29 16:34 | 48.10574 | -121.66316 | 25312 ft | 253 kts | 28° |
| 2026-04-29 16:35 | 48.12044 | -121.64874 | 25308 ft | 252 kts | 28° |
| 2026-04-29 16:35 | 48.13510 | -121.63434 | 25321 ft | 253 kts | 28° |
| 2026-04-29 16:35 | 48.14983 | -121.61985 | 25318 ft | 253 kts | 28° |
| 2026-04-29 16:35 | 48.16449 | -121.60542 | 25313 ft | 252 kts | 29° |
| 2026-04-29 16:36 | 48.17910 | -121.59102 | 25314 ft | 251 kts | 28° |
| 2026-04-29 16:36 | 48.19369 | -121.57664 | 25308 ft | 250 kts | 28° |
| 2026-04-29 16:36 | 48.20808 | -121.56244 | 25317 ft | 251 kts | 28° |
| 2026-04-29 16:36 | 48.22272 | -121.54800 | 25314 ft | 251 kts | 28° |
| 2026-04-29 16:37 | 48.23734 | -121.53358 | 25317 ft | 251 kts | 28° |
| 2026-04-29 16:37 | 48.25198 | -121.51913 | 25316 ft | 252 kts | 28° |
| 2026-04-29 16:37 | 48.26666 | -121.50465 | 25313 ft | 253 kts | 29° |
| 2026-04-29 16:37 | 48.27643 | -121.49501 | 25315 ft | 254 kts | 29° |
| 2026-04-29 16:38 | 48.29622 | -121.47545 | 25319 ft | 255 kts | 29° |
| 2026-04-29 16:38 | 48.31111 | -121.46073 | 25318 ft | 256 kts | 29° |
| 2026-04-29 16:38 | 48.32581 | -121.44620 | 25315 ft | 256 kts | 29° |
| 2026-04-29 16:38 | 48.34064 | -121.43152 | 25317 ft | 256 kts | 29° |
| 2026-04-29 16:39 | 48.35555 | -121.41676 | 25311 ft | 256 kts | 28° |
| 2026-04-29 16:39 | 48.37042 | -121.40202 | 25314 ft | 256 kts | 29° |
| 2026-04-29 16:39 | 48.38532 | -121.38725 | 25316 ft | 256 kts | 29° |
| 2026-04-29 16:39 | 48.40021 | -121.37245 | 25321 ft | 257 kts | 29° |
| 2026-04-29 16:40 | 48.41512 | -121.35761 | 25320 ft | 257 kts | 29° |
| 2026-04-29 16:40 | 48.43006 | -121.34271 | 25318 ft | 258 kts | 29° |
| 2026-04-29 16:40 | 48.44500 | -121.32780 | 25315 ft | 257 kts | 29° |
| 2026-04-29 16:40 | 48.45992 | -121.31290 | 25324 ft | 258 kts | 29° |
| 2026-04-29 16:41 | 48.47489 | -121.29796 | 25322 ft | 258 kts | 29° |
| 2026-04-29 16:41 | 48.48990 | -121.28298 | 25321 ft | 258 kts | 29° |
| 2026-04-29 16:41 | 48.50491 | -121.26798 | 25320 ft | 259 kts | 29° |
| 2026-04-29 16:41 | 48.51990 | -121.25299 | 25314 ft | 258 kts | 29° |
| 2026-04-29 16:42 | 48.53492 | -121.23797 | 25304 ft | 258 kts | 29° |
| 2026-04-29 16:42 | 48.54971 | -121.22317 | 25317 ft | 258 kts | 30° |
| 2026-04-29 16:42 | 48.56477 | -121.20808 | 25317 ft | 259 kts | 29° |
| 2026-04-29 16:42 | 48.57980 | -121.19301 | 25313 ft | 259 kts | 29° |
| 2026-04-29 16:43 | 48.59478 | -121.17800 | 25316 ft | 259 kts | 29° |
| 2026-04-29 16:43 | 48.60980 | -121.16293 | 25315 ft | 258 kts | 29° |
| 2026-04-29 16:43 | 48.62476 | -121.14793 | 25306 ft | 257 kts | 29° |
| 2026-04-29 16:43 | 48.63964 | -121.13302 | 25306 ft | 256 kts | 29° |
| 2026-04-29 16:44 | 48.65451 | -121.11811 | 25291 ft | 256 kts | 29° |
| 2026-04-29 16:44 | 48.66924 | -121.10330 | 25292 ft | 254 kts | 28° |
| 2026-04-29 16:44 | 48.68396 | -121.08847 | 25307 ft | 254 kts | 29° |
| 2026-04-29 16:44 | 48.69852 | -121.07380 | 25302 ft | 254 kts | 29° |
| 2026-04-29 16:45 | 48.71327 | -121.05887 | 25312 ft | 255 kts | 30° |
| 2026-04-29 16:45 | 48.72808 | -121.04397 | 25315 ft | 256 kts | 29° |
| 2026-04-29 16:45 | 48.74298 | -121.02903 | 25315 ft | 257 kts | 30° |
| 2026-04-29 16:45 | 48.75793 | -121.01402 | 25313 ft | 258 kts | 30° |
| 2026-04-29 16:46 | 48.77289 | -120.99895 | 25311 ft | 258 kts | 30° |
| 2026-04-29 16:46 | 48.78777 | -120.98389 | 25310 ft | 257 kts | 30° |
| 2026-04-29 16:46 | 48.80266 | -120.96880 | 25317 ft | 258 kts | 30° |
| 2026-04-29 16:46 | 48.81761 | -120.95362 | 25312 ft | 258 kts | 30° |
| 2026-04-29 16:47 | 48.83248 | -120.93851 | 25290 ft | 256 kts | 30° |
| 2026-04-29 16:47 | 48.84729 | -120.92346 | 25305 ft | 256 kts | 30° |
| 2026-04-29 16:47 | 48.86217 | -120.90837 | 25310 ft | 257 kts | 30° |
| 2026-04-29 16:47 | 48.87688 | -120.89343 | 25314 ft | 258 kts | 30° |
| 2026-04-29 16:48 | 48.89198 | -120.87807 | 25318 ft | 258 kts | 30° |
| 2026-04-29 16:48 | 48.90686 | -120.86293 | 25310 ft | 257 kts | 30° |
| 2026-04-29 16:48 | 48.92147 | -120.84808 | 25310 ft | 256 kts | 30° |
| 2026-04-29 16:48 | 48.93625 | -120.83302 | 25323 ft | 256 kts | 30° |
| 2026-04-29 16:49 | 48.94622 | -120.82274 | 25323 ft | 257 kts | 31° |
| 2026-04-29 16:49 | 48.96574 | -120.80231 | 25324 ft | 258 kts | 31° |
| 2026-04-29 16:49 | 48.98054 | -120.78673 | 25327 ft | 258 kts | 31° |
| 2026-04-29 16:49 | 48.99534 | -120.77112 | 25330 ft | 259 kts | 31° |
| 2026-04-29 16:50 | 49.01022 | -120.75547 | 25328 ft | 259 kts | 31° |
| 2026-04-29 16:50 | 49.02005 | -120.74513 | 25325 ft | 260 kts | 31° |
| 2026-04-29 16:50 | 49.03492 | -120.72949 | 25327 ft | 260 kts | 31° |
| 2026-04-29 16:50 | 49.05062 | -120.71625 | 25327 ft | 256 kts | 19° |
| 2026-04-29 16:51 | 49.06774 | -120.70951 | 25327 ft | 254 kts | 6° |
| 2026-04-29 16:51 | 49.08527 | -120.70651 | 25335 ft | 253 kts | 4° |
| 2026-04-29 16:51 | 49.10276 | -120.70388 | 25336 ft | 252 kts | 4° |
| 2026-04-29 16:51 | 49.12028 | -120.70130 | 25338 ft | 253 kts | 4° |
| 2026-04-29 16:52 | 49.13758 | -120.69872 | 25337 ft | 253 kts | 4° |
| 2026-04-29 16:52 | 49.15508 | -120.69607 | 25337 ft | 252 kts | 4° |
| 2026-04-29 16:52 | 49.17258 | -120.69338 | 25341 ft | 253 kts | 4° |
| 2026-04-29 16:52 | 49.19013 | -120.69067 | 25342 ft | 253 kts | 4° |
| 2026-04-29 16:53 | 49.20769 | -120.68795 | 25335 ft | 253 kts | 4° |
| 2026-04-29 16:53 | 49.22519 | -120.68524 | 25343 ft | 253 kts | 4° |
| 2026-04-29 16:53 | 49.24266 | -120.68251 | 25355 ft | 253 kts | 5° |
| 2026-04-29 16:53 | 49.26017 | -120.67978 | 25356 ft | 253 kts | 5° |
| 2026-04-29 16:54 | 49.27774 | -120.67705 | 25356 ft | 254 kts | 5° |
| 2026-04-29 16:54 | 49.29513 | -120.67435 | 25351 ft | 254 kts | 5° |
| 2026-04-29 16:54 | 49.31267 | -120.67162 | 25354 ft | 254 kts | 5° |
| 2026-04-29 16:54 | 49.33024 | -120.66889 | 25354 ft | 254 kts | 5° |
| 2026-04-29 16:55 | 49.34779 | -120.66615 | 25354 ft | 254 kts | 5° |
| 2026-04-29 16:55 | 49.36537 | -120.66340 | 25357 ft | 254 kts | 5° |
| 2026-04-29 16:55 | 49.38295 | -120.66065 | 25358 ft | 254 kts | 5° |
| 2026-04-29 16:55 | 49.40051 | -120.65791 | 25359 ft | 254 kts | 5° |
| 2026-04-29 16:56 | 49.41810 | -120.65516 | 25360 ft | 254 kts | 5° |
| 2026-04-29 16:56 | 49.43568 | -120.65241 | 25359 ft | 254 kts | 5° |
| 2026-04-29 16:56 | 49.45324 | -120.64966 | 25361 ft | 254 kts | 5° |
| 2026-04-29 16:56 | 49.47080 | -120.64690 | 25360 ft | 254 kts | 5° |
| 2026-04-29 16:57 | 49.48840 | -120.64414 | 25360 ft | 254 kts | 5° |
| 2026-04-29 16:57 | 49.50601 | -120.64139 | 25356 ft | 254 kts | 5° |
| 2026-04-29 16:57 | 49.52354 | -120.63863 | 25357 ft | 253 kts | 5° |
| 2026-04-29 16:57 | 49.54111 | -120.63586 | 25359 ft | 253 kts | 5° |
| 2026-04-29 16:58 | 49.55865 | -120.63309 | 25356 ft | 253 kts | 5° |
| 2026-04-29 16:58 | 49.57615 | -120.63033 | 25350 ft | 253 kts | 5° |
| 2026-04-29 16:58 | 49.59365 | -120.62756 | 25356 ft | 252 kts | 5° |
| 2026-04-29 16:58 | 49.61112 | -120.62480 | 25359 ft | 252 kts | 5° |
| 2026-04-29 16:59 | 49.62864 | -120.62201 | 25368 ft | 253 kts | 5° |
| 2026-04-29 16:59 | 49.64592 | -120.61929 | 25363 ft | 253 kts | 5° |
| 2026-04-29 16:59 | 49.66349 | -120.61651 | 25362 ft | 254 kts | 5° |
| 2026-04-29 16:59 | 49.68109 | -120.61373 | 25359 ft | 254 kts | 5° |
| 2026-04-29 17:00 | 49.69862 | -120.61097 | 25360 ft | 254 kts | 5° |
| 2026-04-29 17:00 | 49.71618 | -120.60818 | 25360 ft | 254 kts | 5° |
| 2026-04-29 17:00 | 49.73376 | -120.60539 | 25363 ft | 254 kts | 5° |
| 2026-04-29 17:00 | 49.75133 | -120.60260 | 25364 ft | 254 kts | 5° |
| 2026-04-29 17:01 | 49.76890 | -120.59981 | 25362 ft | 254 kts | 5° |
| 2026-04-29 17:01 | 49.78645 | -120.59703 | 25364 ft | 254 kts | 5° |
| 2026-04-29 17:01 | 49.80407 | -120.59422 | 25363 ft | 254 kts | 5° |
| 2026-04-29 17:01 | 49.82170 | -120.59142 | 25363 ft | 254 kts | 5° |
| 2026-04-29 17:02 | 49.83929 | -120.58862 | 25358 ft | 254 kts | 5° |
| 2026-04-29 17:02 | 49.85686 | -120.58582 | 25358 ft | 254 kts | 5° |
| 2026-04-29 17:02 | 49.87442 | -120.58303 | 25359 ft | 254 kts | 5° |
| 2026-04-29 17:02 | 49.89198 | -120.58023 | 25363 ft | 254 kts | 5° |
| 2026-04-29 17:03 | 49.90955 | -120.57743 | 25365 ft | 254 kts | 5° |
| 2026-04-29 17:03 | 49.92693 | -120.57465 | 25362 ft | 254 kts | 5° |
| 2026-04-29 17:03 | 49.94476 | -120.57180 | 25363 ft | 254 kts | 5° |
| 2026-04-29 17:03 | 49.96216 | -120.56901 | 25362 ft | 254 kts | 5° |
| 2026-04-29 17:04 | 49.97974 | -120.56620 | 25363 ft | 254 kts | 5° |
| 2026-04-29 17:04 | 49.99738 | -120.56338 | 25363 ft | 254 kts | 5° |
| 2026-04-29 17:04 | 50.01500 | -120.56055 | 25369 ft | 255 kts | 5° |
| 2026-04-29 17:04 | 50.03268 | -120.55772 | 25366 ft | 255 kts | 5° |
| 2026-04-29 17:05 | 50.05030 | -120.55489 | 25364 ft | 255 kts | 5° |
| 2026-04-29 17:05 | 50.06792 | -120.55206 | 25363 ft | 255 kts | 5° |
| 2026-04-29 17:05 | 50.08557 | -120.54922 | 25363 ft | 255 kts | 5° |
| 2026-04-29 17:05 | 50.10317 | -120.54820 | 25357 ft | 253 kts | 351° |
| 2026-04-29 17:06 | 50.11896 | -120.56003 | 25362 ft | 256 kts | 324° |
| 2026-04-29 17:06 | 50.13179 | -120.57952 | 25363 ft | 258 kts | 315° |
| 2026-04-29 17:06 | 50.14345 | -120.60096 | 25365 ft | 260 kts | 313° |
| 2026-04-29 17:06 | 50.15468 | -120.62271 | 25366 ft | 262 kts | 312° |
| 2026-04-29 17:07 | 50.16601 | -120.64495 | 25360 ft | 262 kts | 312° |
| 2026-04-29 17:07 | 50.17729 | -120.66721 | 25356 ft | 262 kts | 312° |
| 2026-04-29 17:07 | 50.18858 | -120.68951 | 25358 ft | 261 kts | 312° |
| 2026-04-29 17:07 | 50.19984 | -120.71175 | 25357 ft | 261 kts | 312° |
| 2026-04-29 17:08 | 50.21111 | -120.73404 | 25358 ft | 261 kts | 312° |
| 2026-04-29 17:08 | 50.22238 | -120.75631 | 25360 ft | 261 kts | 312° |
| 2026-04-29 17:08 | 50.23366 | -120.77860 | 25361 ft | 262 kts | 312° |
| 2026-04-29 17:08 | 50.24510 | -120.80116 | 25142 ft | 266 kts | 312° |
| 2026-04-29 17:09 | 50.25662 | -120.82381 | 24924 ft | 266 kts | 312° |
| 2026-04-29 17:09 | 50.26811 | -120.84643 | 24711 ft | 265 kts | 312° |
| 2026-04-29 17:09 | 50.27955 | -120.86895 | 24498 ft | 264 kts | 312° |
| 2026-04-29 17:09 | 50.29109 | -120.89115 | 24290 ft | 261 kts | 315° |
| 2026-04-29 17:10 | 50.30445 | -120.90984 | 24125 ft | 255 kts | 328° |
| 2026-04-29 17:10 | 50.31994 | -120.92279 | 23965 ft | 251 kts | 339° |
| 2026-04-29 17:10 | 50.33625 | -120.93106 | 23780 ft | 249 kts | 347° |
| 2026-04-29 17:10 | 50.35315 | -120.93664 | 23587 ft | 248 kts | 351° |
| 2026-04-29 17:11 | 50.37023 | -120.94077 | 23395 ft | 247 kts | 353° |
| 2026-04-29 17:11 | 50.38733 | -120.94422 | 23204 ft | 247 kts | 353° |
| 2026-04-29 17:11 | 50.40436 | -120.94739 | 23012 ft | 247 kts | 354° |
| 2026-04-29 17:11 | 50.42140 | -120.95047 | 22819 ft | 246 kts | 354° |
| 2026-04-29 17:12 | 50.43845 | -120.95353 | 22631 ft | 246 kts | 354° |
| 2026-04-29 17:12 | 50.45546 | -120.95657 | 22448 ft | 246 kts | 354° |
| 2026-04-29 17:12 | 50.47249 | -120.95961 | 22263 ft | 246 kts | 354° |
| 2026-04-29 17:12 | 50.48374 | -120.96163 | 22136 ft | 246 kts | 354° |
| 2026-04-29 17:13 | 50.50647 | -120.96569 | 21890 ft | 245 kts | 354° |
| 2026-04-29 17:13 | 50.52345 | -120.96873 | 21611 ft | 248 kts | 354° |
| 2026-04-29 17:13 | 50.54046 | -120.97176 | 21162 ft | 247 kts | 354° |
| 2026-04-29 17:13 | 50.55738 | -120.97476 | 20662 ft | 242 kts | 354° |
| 2026-04-29 17:14 | 50.57390 | -120.97769 | 20172 ft | 237 kts | 353° |
| 2026-04-29 17:14 | 50.59018 | -120.98060 | 19685 ft | 233 kts | 353° |
| 2026-04-29 17:14 | 50.60622 | -120.98347 | 19206 ft | 230 kts | 353° |
| 2026-04-29 17:14 | 50.62204 | -120.98632 | 18732 ft | 228 kts | 353° |
| 2026-04-29 17:15 | 50.63774 | -120.98916 | 18206 ft | 226 kts | 353° |
| 2026-04-29 17:15 | 50.65326 | -120.99196 | 17667 ft | 224 kts | 353° |
| 2026-04-29 17:15 | 50.66851 | -120.99092 | 17137 ft | 221 kts | 17° |
| 2026-04-29 17:15 | 50.68032 | -120.97626 | 16632 ft | 225 kts | 54° |
| 2026-04-29 17:16 | 50.68360 | -120.95209 | 16117 ft | 230 kts | 95° |
| 2026-04-29 17:16 | 50.67637 | -120.93034 | 15620 ft | 232 kts | 135° |
| 2026-04-29 17:16 | 50.66331 | -120.91573 | 15125 ft | 229 kts | 147° |
| 2026-04-29 17:16 | 50.64999 | -120.90319 | 14869 ft | 216 kts | 148° |
| 2026-04-29 17:17 | 50.63739 | -120.89147 | 14631 ft | 205 kts | 148° |
| 2026-04-29 17:17 | 50.62544 | -120.88018 | 14397 ft | 197 kts | 148° |
| 2026-04-29 17:17 | 50.61359 | -120.87029 | 14159 ft | 190 kts | 160° |
| 2026-04-29 17:17 | 50.60087 | -120.86678 | 13894 ft | 184 kts | 181° |
| 2026-04-29 17:18 | 50.58852 | -120.87016 | 13630 ft | 178 kts | 201° |
| 2026-04-29 17:18 | 50.57795 | -120.87940 | 13356 ft | 172 kts | 220° |
| 2026-04-29 17:18 | 50.57001 | -120.89308 | 13097 ft | 168 kts | 239° |
| 2026-04-29 17:18 | 50.56534 | -120.90956 | 12830 ft | 164 kts | 258° |
| 2026-04-29 17:19 | 50.56412 | -120.92713 | 12563 ft | 161 kts | 275° |
| 2026-04-29 17:19 | 50.56629 | -120.94426 | 12318 ft | 160 kts | 291° |
| 2026-04-29 17:19 | 50.57143 | -120.95931 | 12080 ft | 158 kts | 308° |
| 2026-04-29 17:19 | 50.57917 | -120.97131 | 11836 ft | 156 kts | 324° |
| 2026-04-29 17:20 | 50.58880 | -120.97926 | 11584 ft | 156 kts | 340° |
| 2026-04-29 17:20 | 50.59955 | -120.98181 | 11335 ft | 159 kts | 356° |
| 2026-04-29 17:20 | 50.61103 | -120.98341 | 11094 ft | 172 kts | 352° |
| 2026-04-29 17:20 | 50.62322 | -120.98605 | 10853 ft | 181 kts | 351° |
| 2026-04-29 17:21 | 50.63601 | -120.98873 | 10608 ft | 189 kts | 352° |
| 2026-04-29 17:21 | 50.64921 | -120.99075 | 10364 ft | 192 kts | 1° |
| 2026-04-29 17:21 | 50.66139 | -120.98231 | 10105 ft | 197 kts | 41° |
| 2026-04-29 17:21 | 50.67014 | -120.96540 | 9844 ft | 201 kts | 53° |
| 2026-04-29 17:22 | 50.67784 | -120.94709 | 9676 ft | 199 kts | 55° |
| 2026-04-29 17:22 | 50.68523 | -120.92882 | 9547 ft | 196 kts | 56° |
| 2026-04-29 17:22 | 50.69247 | -120.91077 | 9414 ft | 193 kts | 56° |
| 2026-04-29 17:22 | 50.69959 | -120.89292 | 9294 ft | 191 kts | 56° |
| 2026-04-29 17:23 | 50.70656 | -120.87543 | 9171 ft | 190 kts | 56° |
| 2026-04-29 17:23 | 50.71357 | -120.85780 | 9046 ft | 189 kts | 56° |
| 2026-04-29 17:23 | 50.72062 | -120.84007 | 8827 ft | 193 kts | 56° |
| 2026-04-29 17:23 | 50.72783 | -120.82192 | 8586 ft | 194 kts | 56° |
| 2026-04-29 17:24 | 50.73468 | -120.80454 | 8338 ft | 180 kts | 56° |
| 2026-04-29 17:24 | 50.74059 | -120.78762 | 8085 ft | 172 kts | 64° |
| 2026-04-29 17:24 | 50.74412 | -120.76979 | 7741 ft | 172 kts | 76° |
| 2026-04-29 17:24 | 50.74554 | -120.75093 | 7411 ft | 170 kts | 86° |
| 2026-04-29 17:25 | 50.74479 | -120.73331 | 7359 ft | 152 kts | 95° |
| 2026-04-29 17:25 | 50.74299 | -120.71739 | 7264 ft | 146 kts | 99° |
| 2026-04-29 17:25 | 50.74069 | -120.70150 | 6966 ft | 154 kts | 101° |
| 2026-04-29 17:25 | 50.73808 | -120.68442 | 6480 ft | 166 kts | 101° |
| 2026-04-29 17:26 | 50.73535 | -120.66624 | 6008 ft | 173 kts | 101° |
| 2026-04-29 17:26 | 50.73260 | -120.64759 | 5533 ft | 176 kts | 101° |
| 2026-04-29 17:26 | 50.72982 | -120.62869 | 5086 ft | 177 kts | 102° |
| 2026-04-29 17:26 | 50.72701 | -120.60966 | 4632 ft | 178 kts | 102° |
| 2026-04-29 17:27 | 50.72419 | -120.59068 | 4196 ft | 177 kts | 103° |
| 2026-04-29 17:27 | 50.72139 | -120.57174 | 3771 ft | 177 kts | 103° |
| 2026-04-29 17:27 | 50.71863 | -120.55316 | 3296 ft | 167 kts | 103° |
| 2026-04-29 17:27 | 50.71610 | -120.53618 | 2807 ft | 153 kts | 103° |
| 2026-04-29 17:28 | 50.71375 | -120.52037 | 2380 ft | 143 kts | 103° |
| 2026-04-29 17:28 | 50.71157 | -120.50568 | 2006 ft | 137 kts | 103° |
| 2026-04-29 17:28 | 50.70944 | -120.49136 | 1686 ft | 127 kts | 105° |
| 2026-04-29 17:28 | 50.70765 | -120.47909 | 1497 ft | 107 kts | 105° |
| 2026-04-29 17:29 | 50.70598 | -120.46806 | 1222 ft | 100 kts | 105° |
| 2026-04-29 17:29 | 50.70451 | -120.45829 | 1138 ft | 81 kts | 106° |
| 2026-04-29 17:29 | 50.70336 | -120.45071 | 1134 ft | 60 kts | 102° |
| 2026-04-29 17:29 | 50.70290 | -120.44762 | 1131 ft | 35 kts | 104° |
| 2026-04-29 17:30 | 50.70246 | -120.44447 | 1132 ft | 16 kts | 92° |
| 2026-04-29 17:30 | 50.70332 | -120.44355 | 1133 ft | 16 kts | 50° |
| 2026-04-29 17:30 | 50.70388 | -120.44200 | 1132 ft | 17 kts | 62° |
| 2026-04-29 17:30 | 50.70447 | -120.44044 | 1133 ft | 17 kts | 37° |
| 2026-04-29 17:31 | 50.70543 | -120.43944 | 1134 ft | 15 kts | 61° |
| 2026-04-29 17:31 | 50.70583 | -120.43831 | 1131 ft | 9 kts | 68° |
| 2026-04-29 17:31 | 50.70552 | -120.43772 | 1131 ft | 5 kts | 101° |
| 2026-04-29 17:31 | 50.70562 | -120.43736 | 1132 ft | 0 kts | 62° |